sensor_id;sensor_type;location;lat;lon;timestamp;P1;durP1;ratioP1;P2;durP2;ratioP2
665;SDS011;315;48.738;9.126;2022-10-26T00:01:26;6.83;;;4.10;;
665;SDS011;315;48.738;9.126;2022-10-26T00:03:53;6.77;;;4.17;;
665;SDS011;315;48.738;9.126;2022-10-26T00:06:21;7.00;;;4.73;;
665;SDS011;315;48.738;9.126;2022-10-26T00:08:50;4.97;;;4.57;;
665;SDS011;315;48.738;9.126;2022-10-26T00:11:16;11.90;;;5.40;;
665;SDS011;315;48.738;9.126;2022-10-26T00:13:43;5.63;;;4.10;;
665;SDS011;315;48.738;9.126;2022-10-26T00:16:11;5.63;;;4.10;;
665;SDS011;315;48.738;9.126;2022-10-26T00:18:55;9.47;;;3.90;;
665;SDS011;315;48.738;9.126;2022-10-26T00:21:20;9.83;;;4.37;;
665;SDS011;315;48.738;9.126;2022-10-26T00:23:46;4.40;;;4.00;;
665;SDS011;315;48.738;9.126;2022-10-26T00:26:11;8.77;;;4.37;;
665;SDS011;315;48.738;9.126;2022-10-26T00:28:37;4.13;;;3.60;;
665;SDS011;315;48.738;9.126;2022-10-26T00:31:07;7.60;;;5.27;;
665;SDS011;315;48.738;9.126;2022-10-26T00:33:36;6.10;;;3.67;;
665;SDS011;315;48.738;9.126;2022-10-26T00:36:02;5.67;;;4.13;;
665;SDS011;315;48.738;9.126;2022-10-26T00:38:28;4.03;;;3.57;;
665;SDS011;315;48.738;9.126;2022-10-26T00:40:53;4.53;;;3.60;;
665;SDS011;315;48.738;9.126;2022-10-26T00:45:54;4.93;;;3.03;;
665;SDS011;315;48.738;9.126;2022-10-26T00:48:25;4.90;;;3.73;;
665;SDS011;315;48.738;9.126;2022-10-26T00:50:53;3.87;;;3.57;;
665;SDS011;315;48.738;9.126;2022-10-26T00:53:22;5.63;;;4.37;;
665;SDS011;315;48.738;9.126;2022-10-26T00:55:49;4.33;;;2.80;;
665;SDS011;315;48.738;9.126;2022-10-26T00:58:16;6.17;;;3.33;;
665;SDS011;315;48.738;9.126;2022-10-26T01:00:44;8.23;;;4.83;;
665;SDS011;315;48.738;9.126;2022-10-26T01:03:10;7.20;;;3.03;;
665;SDS011;315;48.738;9.126;2022-10-26T01:05:36;4.70;;;4.00;;
665;SDS011;315;48.738;9.126;2022-10-26T01:08:04;6.43;;;3.20;;
665;SDS011;315;48.738;9.126;2022-10-26T01:10:32;6.10;;;3.00;;
665;SDS011;315;48.738;9.126;2022-10-26T01:12:59;8.87;;;4.07;;
665;SDS011;315;48.738;9.126;2022-10-26T01:15:30;9.10;;;4.53;;
665;SDS011;315;48.738;9.126;2022-10-26T01:18:14;3.90;;;3.00;;
665;SDS011;315;48.738;9.126;2022-10-26T01:21:17;3.67;;;3.37;;
665;SDS011;315;48.738;9.126;2022-10-26T01:24:20;4.20;;;2.90;;
665;SDS011;315;48.738;9.126;2022-10-26T01:35:32;6.37;;;3.87;;
665;SDS011;315;48.738;9.126;2022-10-26T01:38:41;3.83;;;3.50;;
665;SDS011;315;48.738;9.126;2022-10-26T01:41:05;11.03;;;3.57;;
665;SDS011;315;48.738;9.126;2022-10-26T01:43:37;6.70;;;3.20;;
665;SDS011;315;48.738;9.126;2022-10-26T01:46:07;3.40;;;3.10;;
665;SDS011;315;48.738;9.126;2022-10-26T01:48:34;5.90;;;3.70;;
665;SDS011;315;48.738;9.126;2022-10-26T01:51:02;7.13;;;3.33;;
665;SDS011;315;48.738;9.126;2022-10-26T01:53:29;4.67;;;3.07;;
665;SDS011;315;48.738;9.126;2022-10-26T01:55:54;7.13;;;3.70;;
665;SDS011;315;48.738;9.126;2022-10-26T02:01:05;4.87;;;3.57;;
665;SDS011;315;48.738;9.126;2022-10-26T02:06:49;6.43;;;3.90;;
665;SDS011;315;48.738;9.126;2022-10-26T02:15:00;3.40;;;3.10;;
665;SDS011;315;48.738;9.126;2022-10-26T02:17:50;5.00;;;3.30;;
665;SDS011;315;48.738;9.126;2022-10-26T02:20:24;4.33;;;3.70;;
665;SDS011;315;48.738;9.126;2022-10-26T02:22:55;5.23;;;3.10;;
665;SDS011;315;48.738;9.126;2022-10-26T02:25:26;8.53;;;3.00;;
665;SDS011;315;48.738;9.126;2022-10-26T02:27:55;3.47;;;2.97;;
665;SDS011;315;48.738;9.126;2022-10-26T02:30:25;6.10;;;3.40;;
665;SDS011;315;48.738;9.126;2022-10-26T02:32:51;3.87;;;3.50;;
665;SDS011;315;48.738;9.126;2022-10-26T02:35:21;5.93;;;3.10;;
665;SDS011;315;48.738;9.126;2022-10-26T02:37:51;7.43;;;3.40;;
665;SDS011;315;48.738;9.126;2022-10-26T02:40:20;4.03;;;3.00;;
665;SDS011;315;48.738;9.126;2022-10-26T02:42:50;3.93;;;3.53;;
665;SDS011;315;48.738;9.126;2022-10-26T02:45:20;3.80;;;3.13;;
665;SDS011;315;48.738;9.126;2022-10-26T02:47:50;4.33;;;3.00;;
665;SDS011;315;48.738;9.126;2022-10-26T02:50:16;3.67;;;3.23;;
665;SDS011;315;48.738;9.126;2022-10-26T02:55:19;5.33;;;3.33;;
665;SDS011;315;48.738;9.126;2022-10-26T02:57:59;6.17;;;3.60;;
665;SDS011;315;48.738;9.126;2022-10-26T03:00:28;4.50;;;3.70;;
665;SDS011;315;48.738;9.126;2022-10-26T03:02:56;5.70;;;3.60;;
665;SDS011;315;48.738;9.126;2022-10-26T03:05:24;5.93;;;3.43;;
665;SDS011;315;48.738;9.126;2022-10-26T03:07:51;4.97;;;3.70;;
665;SDS011;315;48.738;9.126;2022-10-26T03:10:18;2.93;;;2.73;;
665;SDS011;315;48.738;9.126;2022-10-26T03:12:43;6.50;;;3.10;;
665;SDS011;315;48.738;9.126;2022-10-26T03:15:09;4.53;;;3.20;;
665;SDS011;315;48.738;9.126;2022-10-26T03:17:35;6.70;;;5.90;;
665;SDS011;315;48.738;9.126;2022-10-26T03:20:00;3.47;;;2.83;;
665;SDS011;315;48.738;9.126;2022-10-26T03:22:26;7.70;;;3.90;;
665;SDS011;315;48.738;9.126;2022-10-26T03:24:52;3.53;;;2.83;;
665;SDS011;315;48.738;9.126;2022-10-26T03:27:17;7.10;;;3.77;;
665;SDS011;315;48.738;9.126;2022-10-26T03:29:43;4.93;;;2.93;;
665;SDS011;315;48.738;9.126;2022-10-26T03:32:08;3.37;;;3.07;;
665;SDS011;315;48.738;9.126;2022-10-26T03:34:34;5.63;;;2.67;;
665;SDS011;315;48.738;9.126;2022-10-26T03:37:00;9.90;;;4.03;;
665;SDS011;315;48.738;9.126;2022-10-26T03:39:25;3.50;;;2.87;;
665;SDS011;315;48.738;9.126;2022-10-26T03:41:51;5.30;;;3.20;;
665;SDS011;315;48.738;9.126;2022-10-26T03:44:16;3.60;;;3.13;;
665;SDS011;315;48.738;9.126;2022-10-26T03:46:42;3.70;;;2.83;;
665;SDS011;315;48.738;9.126;2022-10-26T03:49:08;4.07;;;2.90;;
665;SDS011;315;48.738;9.126;2022-10-26T03:51:33;3.63;;;2.80;;
665;SDS011;315;48.738;9.126;2022-10-26T03:53:59;3.73;;;3.20;;
665;SDS011;315;48.738;9.126;2022-10-26T03:56:24;3.53;;;3.27;;
665;SDS011;315;48.738;9.126;2022-10-26T03:58:50;4.50;;;3.27;;
665;SDS011;315;48.738;9.126;2022-10-26T04:01:16;3.43;;;2.87;;
665;SDS011;315;48.738;9.126;2022-10-26T04:03:41;3.20;;;2.83;;
665;SDS011;315;48.738;9.126;2022-10-26T04:06:07;2.90;;;2.67;;
665;SDS011;315;48.738;9.126;2022-10-26T04:08:32;6.33;;;3.27;;
665;SDS011;315;48.738;9.126;2022-10-26T04:10:58;5.70;;;3.47;;
665;SDS011;315;48.738;9.126;2022-10-26T04:13:23;3.43;;;3.00;;
665;SDS011;315;48.738;9.126;2022-10-26T04:15:49;3.67;;;2.67;;
665;SDS011;315;48.738;9.126;2022-10-26T04:18:14;4.53;;;2.83;;
665;SDS011;315;48.738;9.126;2022-10-26T04:20:41;7.60;;;3.07;;
665;SDS011;315;48.738;9.126;2022-10-26T04:23:08;4.57;;;3.10;;
665;SDS011;315;48.738;9.126;2022-10-26T04:25:36;5.53;;;3.77;;
665;SDS011;315;48.738;9.126;2022-10-26T04:28:03;5.63;;;2.87;;
665;SDS011;315;48.738;9.126;2022-10-26T04:30:30;3.33;;;2.97;;
665;SDS011;315;48.738;9.126;2022-10-26T04:32:56;4.73;;;3.23;;
665;SDS011;315;48.738;9.126;2022-10-26T04:35:21;3.43;;;3.13;;
665;SDS011;315;48.738;9.126;2022-10-26T04:37:47;5.23;;;3.70;;
665;SDS011;315;48.738;9.126;2022-10-26T04:40:13;5.57;;;3.60;;
665;SDS011;315;48.738;9.126;2022-10-26T04:42:39;4.07;;;3.67;;
665;SDS011;315;48.738;9.126;2022-10-26T04:45:08;4.93;;;3.80;;
665;SDS011;315;48.738;9.126;2022-10-26T04:47:34;8.73;;;3.67;;
665;SDS011;315;48.738;9.126;2022-10-26T04:50:00;3.70;;;3.33;;
665;SDS011;315;48.738;9.126;2022-10-26T04:52:25;4.90;;;3.20;;
665;SDS011;315;48.738;9.126;2022-10-26T04:54:51;6.97;;;3.40;;
665;SDS011;315;48.738;9.126;2022-10-26T04:57:16;4.23;;;3.10;;
665;SDS011;315;48.738;9.126;2022-10-26T04:59:42;5.60;;;4.03;;
665;SDS011;315;48.738;9.126;2022-10-26T05:02:07;8.10;;;3.83;;
665;SDS011;315;48.738;9.126;2022-10-26T05:04:33;10.20;;;3.83;;
665;SDS011;315;48.738;9.126;2022-10-26T05:06:58;4.43;;;2.80;;
665;SDS011;315;48.738;9.126;2022-10-26T05:09:24;5.43;;;4.57;;
665;SDS011;315;48.738;9.126;2022-10-26T05:11:49;5.10;;;3.20;;
665;SDS011;315;48.738;9.126;2022-10-26T05:14:15;3.77;;;3.40;;
665;SDS011;315;48.738;9.126;2022-10-26T05:16:40;8.30;;;3.57;;
665;SDS011;315;48.738;9.126;2022-10-26T05:19:08;8.43;;;3.60;;
665;SDS011;315;48.738;9.126;2022-10-26T05:21:34;3.60;;;3.23;;
665;SDS011;315;48.738;9.126;2022-10-26T05:23:59;5.00;;;3.20;;
665;SDS011;315;48.738;9.126;2022-10-26T05:26:25;4.03;;;2.77;;
665;SDS011;315;48.738;9.126;2022-10-26T05:28:50;5.43;;;2.53;;
665;SDS011;315;48.738;9.126;2022-10-26T05:31:17;3.67;;;3.13;;
665;SDS011;315;48.738;9.126;2022-10-26T05:33:42;3.37;;;3.17;;
665;SDS011;315;48.738;9.126;2022-10-26T05:36:08;3.20;;;3.00;;
665;SDS011;315;48.738;9.126;2022-10-26T05:38:33;4.40;;;3.60;;
665;SDS011;315;48.738;9.126;2022-10-26T05:40:59;7.93;;;3.07;;
665;SDS011;315;48.738;9.126;2022-10-26T05:43:27;4.60;;;3.67;;
665;SDS011;315;48.738;9.126;2022-10-26T05:45:54;6.87;;;4.10;;
665;SDS011;315;48.738;9.126;2022-10-26T05:48:20;5.43;;;3.70;;
665;SDS011;315;48.738;9.126;2022-10-26T05:50:45;3.33;;;3.03;;
665;SDS011;315;48.738;9.126;2022-10-26T05:53:11;6.60;;;3.90;;
665;SDS011;315;48.738;9.126;2022-10-26T05:55:37;3.80;;;3.30;;
665;SDS011;315;48.738;9.126;2022-10-26T05:58:03;4.47;;;3.40;;
665;SDS011;315;48.738;9.126;2022-10-26T06:00:32;6.80;;;3.50;;
665;SDS011;315;48.738;9.126;2022-10-26T06:08:19;5.63;;;2.80;;
665;SDS011;315;48.738;9.126;2022-10-26T06:10:47;3.00;;;2.70;;
665;SDS011;315;48.738;9.126;2022-10-26T06:13:13;4.00;;;3.20;;
665;SDS011;315;48.738;9.126;2022-10-26T06:23:57;7.70;;;3.50;;
665;SDS011;315;48.738;9.126;2022-10-26T06:32:15;6.00;;;3.30;;
665;SDS011;315;48.738;9.126;2022-10-26T06:34:42;3.10;;;2.90;;
665;SDS011;315;48.738;9.126;2022-10-26T06:37:12;5.13;;;2.60;;
665;SDS011;315;48.738;9.126;2022-10-26T06:39:38;4.93;;;3.20;;
665;SDS011;315;48.738;9.126;2022-10-26T06:42:09;2.40;;;2.20;;
665;SDS011;315;48.738;9.126;2022-10-26T06:44:35;3.10;;;2.80;;
665;SDS011;315;48.738;9.126;2022-10-26T06:47:22;10.33;;;3.80;;
665;SDS011;315;48.738;9.126;2022-10-26T06:49:56;5.53;;;3.70;;
665;SDS011;315;48.738;9.126;2022-10-26T06:52:33;7.80;;;3.37;;
665;SDS011;315;48.738;9.126;2022-10-26T06:55:04;4.90;;;3.27;;
665;SDS011;315;48.738;9.126;2022-10-26T06:57:34;5.20;;;3.27;;
665;SDS011;315;48.738;9.126;2022-10-26T07:00:08;5.53;;;3.60;;
665;SDS011;315;48.738;9.126;2022-10-26T07:02:43;5.33;;;2.93;;
665;SDS011;315;48.738;9.126;2022-10-26T07:05:09;4.90;;;3.93;;
665;SDS011;315;48.738;9.126;2022-10-26T07:07:39;5.60;;;3.40;;
665;SDS011;315;48.738;9.126;2022-10-26T07:10:07;4.37;;;3.10;;
665;SDS011;315;48.738;9.126;2022-10-26T07:12:33;8.90;;;4.40;;
665;SDS011;315;48.738;9.126;2022-10-26T07:14:59;4.40;;;4.00;;
665;SDS011;315;48.738;9.126;2022-10-26T07:17:25;6.13;;;3.50;;
665;SDS011;315;48.738;9.126;2022-10-26T07:19:52;3.80;;;3.10;;
665;SDS011;315;48.738;9.126;2022-10-26T07:22:18;8.63;;;3.40;;
665;SDS011;315;48.738;9.126;2022-10-26T07:24:44;4.67;;;2.87;;
665;SDS011;315;48.738;9.126;2022-10-26T07:27:09;4.23;;;3.63;;
665;SDS011;315;48.738;9.126;2022-10-26T07:29:35;3.90;;;3.30;;
665;SDS011;315;48.738;9.126;2022-10-26T07:32:00;5.57;;;4.20;;
665;SDS011;315;48.738;9.126;2022-10-26T07:34:26;7.30;;;4.10;;
665;SDS011;315;48.738;9.126;2022-10-26T07:36:51;4.90;;;3.63;;
665;SDS011;315;48.738;9.126;2022-10-26T07:39:17;6.77;;;3.70;;
665;SDS011;315;48.738;9.126;2022-10-26T07:41:44;4.20;;;3.80;;
665;SDS011;315;48.738;9.126;2022-10-26T07:44:10;7.17;;;4.20;;
665;SDS011;315;48.738;9.126;2022-10-26T07:46:36;7.70;;;6.30;;
665;SDS011;315;48.738;9.126;2022-10-26T07:49:01;6.60;;;4.13;;
665;SDS011;315;48.738;9.126;2022-10-26T07:51:27;4.93;;;4.50;;
665;SDS011;315;48.738;9.126;2022-10-26T07:53:52;6.37;;;3.97;;
665;SDS011;315;48.738;9.126;2022-10-26T07:56:18;3.63;;;3.30;;
665;SDS011;315;48.738;9.126;2022-10-26T07:58:43;6.17;;;4.63;;
665;SDS011;315;48.738;9.126;2022-10-26T08:01:10;4.87;;;3.80;;
665;SDS011;315;48.738;9.126;2022-10-26T08:03:37;7.77;;;4.53;;
665;SDS011;315;48.738;9.126;2022-10-26T08:06:03;6.30;;;4.00;;
665;SDS011;315;48.738;9.126;2022-10-26T08:08:29;8.30;;;4.53;;
665;SDS011;315;48.738;9.126;2022-10-26T08:10:55;4.00;;;3.43;;
665;SDS011;315;48.738;9.126;2022-10-26T08:13:21;6.40;;;3.27;;
665;SDS011;315;48.738;9.126;2022-10-26T08:15:47;4.13;;;3.57;;
665;SDS011;315;48.738;9.126;2022-10-26T08:18:12;5.80;;;3.43;;
665;SDS011;315;48.738;9.126;2022-10-26T08:20:38;4.43;;;3.63;;
665;SDS011;315;48.738;9.126;2022-10-26T08:23:04;7.20;;;3.97;;
665;SDS011;315;48.738;9.126;2022-10-26T08:25:30;5.17;;;4.70;;
665;SDS011;315;48.738;9.126;2022-10-26T08:28:00;5.60;;;3.70;;
665;SDS011;315;48.738;9.126;2022-10-26T08:30:27;4.23;;;3.50;;
665;SDS011;315;48.738;9.126;2022-10-26T08:32:57;5.40;;;3.70;;
665;SDS011;315;48.738;9.126;2022-10-26T08:35:30;4.23;;;3.60;;
665;SDS011;315;48.738;9.126;2022-10-26T08:37:56;5.60;;;3.50;;
665;SDS011;315;48.738;9.126;2022-10-26T08:40:24;5.17;;;4.37;;
665;SDS011;315;48.738;9.126;2022-10-26T08:45:35;7.70;;;4.67;;
665;SDS011;315;48.738;9.126;2022-10-26T08:48:04;4.03;;;3.40;;
665;SDS011;315;48.738;9.126;2022-10-26T08:51:22;3.90;;;3.50;;
665;SDS011;315;48.738;9.126;2022-10-26T08:53:36;6.83;;;3.60;;
665;SDS011;315;48.738;9.126;2022-10-26T08:56:08;4.07;;;3.57;;
665;SDS011;315;48.738;9.126;2022-10-26T08:58:45;4.30;;;3.80;;
665;SDS011;315;48.738;9.126;2022-10-26T09:01:18;4.40;;;3.97;;
665;SDS011;315;48.738;9.126;2022-10-26T09:03:44;4.33;;;3.93;;
665;SDS011;315;48.738;9.126;2022-10-26T09:06:27;3.67;;;3.37;;
665;SDS011;315;48.738;9.126;2022-10-26T09:09:11;4.70;;;4.03;;
665;SDS011;315;48.738;9.126;2022-10-26T09:15:02;4.73;;;3.33;;
665;SDS011;315;48.738;9.126;2022-10-26T09:23:28;4.70;;;3.97;;
665;SDS011;315;48.738;9.126;2022-10-26T09:26:03;5.10;;;2.90;;
665;SDS011;315;48.738;9.126;2022-10-26T09:28:33;5.77;;;3.90;;
665;SDS011;315;48.738;9.126;2022-10-26T09:31:01;5.67;;;3.70;;
665;SDS011;315;48.738;9.126;2022-10-26T09:33:28;5.80;;;3.10;;
665;SDS011;315;48.738;9.126;2022-10-26T09:36:02;7.27;;;2.93;;
665;SDS011;315;48.738;9.126;2022-10-26T09:38:39;4.83;;;3.00;;
665;SDS011;315;48.738;9.126;2022-10-26T09:41:22;8.43;;;3.40;;
665;SDS011;315;48.738;9.126;2022-10-26T09:46:47;8.67;;;2.87;;
665;SDS011;315;48.738;9.126;2022-10-26T09:49:21;7.60;;;3.20;;
665;SDS011;315;48.738;9.126;2022-10-26T09:51:55;9.33;;;7.53;;
665;SDS011;315;48.738;9.126;2022-10-26T09:54:21;3.07;;;2.50;;
665;SDS011;315;48.738;9.126;2022-10-26T09:56:48;4.60;;;2.80;;
665;SDS011;315;48.738;9.126;2022-10-26T09:59:19;4.10;;;2.60;;
665;SDS011;315;48.738;9.126;2022-10-26T10:01:46;4.87;;;3.27;;
665;SDS011;315;48.738;9.126;2022-10-26T10:06:38;6.80;;;3.90;;
665;SDS011;315;48.738;9.126;2022-10-26T10:14:23;8.03;;;4.60;;
665;SDS011;315;48.738;9.126;2022-10-26T10:16:59;8.20;;;3.60;;
665;SDS011;315;48.738;9.126;2022-10-26T10:19:27;7.83;;;4.63;;
665;SDS011;315;48.738;9.126;2022-10-26T10:21:58;6.53;;;3.37;;
665;SDS011;315;48.738;9.126;2022-10-26T10:26:59;8.40;;;4.30;;
665;SDS011;315;48.738;9.126;2022-10-26T10:29:31;5.33;;;3.17;;
665;SDS011;315;48.738;9.126;2022-10-26T10:31:59;7.40;;;2.30;;
665;SDS011;315;48.738;9.126;2022-10-26T10:34:30;3.67;;;2.90;;
665;SDS011;315;48.738;9.126;2022-10-26T10:36:57;6.97;;;3.03;;
665;SDS011;315;48.738;9.126;2022-10-26T10:39:32;7.57;;;3.43;;
665;SDS011;315;48.738;9.126;2022-10-26T10:42:16;7.40;;;3.90;;
665;SDS011;315;48.738;9.126;2022-10-26T10:44:49;12.20;;;9.77;;
665;SDS011;315;48.738;9.126;2022-10-26T10:47:18;16.30;;;14.80;;
665;SDS011;315;48.738;9.126;2022-10-26T10:49:51;18.50;;;13.23;;
665;SDS011;315;48.738;9.126;2022-10-26T10:52:37;5.40;;;3.70;;
665;SDS011;315;48.738;9.126;2022-10-26T11:00:23;7.67;;;4.97;;
665;SDS011;315;48.738;9.126;2022-10-26T11:02:52;5.13;;;3.20;;
665;SDS011;315;48.738;9.126;2022-10-26T11:08:29;4.57;;;3.60;;
665;SDS011;315;48.738;9.126;2022-10-26T11:11:07;4.87;;;3.10;;
665;SDS011;315;48.738;9.126;2022-10-26T11:16:37;5.10;;;3.03;;
665;SDS011;315;48.738;9.126;2022-10-26T11:21:47;4.57;;;3.00;;
665;SDS011;315;48.738;9.126;2022-10-26T11:26:54;3.07;;;2.77;;
665;SDS011;315;48.738;9.126;2022-10-26T11:32:37;4.53;;;2.73;;
665;SDS011;315;48.738;9.126;2022-10-26T11:40:44;4.03;;;2.70;;
665;SDS011;315;48.738;9.126;2022-10-26T11:46:15;6.03;;;2.60;;
665;SDS011;315;48.738;9.126;2022-10-26T11:49:20;4.83;;;2.50;;
665;SDS011;315;48.738;9.126;2022-10-26T11:54:40;5.77;;;2.63;;
665;SDS011;315;48.738;9.126;2022-10-26T11:57:08;5.60;;;3.70;;
665;SDS011;315;48.738;9.126;2022-10-26T11:59:37;5.80;;;3.00;;
665;SDS011;315;48.738;9.126;2022-10-26T12:04:51;6.33;;;2.90;;
665;SDS011;315;48.738;9.126;2022-10-26T12:07:28;6.30;;;2.60;;
665;SDS011;315;48.738;9.126;2022-10-26T12:09:56;5.37;;;2.40;;
665;SDS011;315;48.738;9.126;2022-10-26T12:17:38;3.17;;;2.27;;
665;SDS011;315;48.738;9.126;2022-10-26T12:22:50;6.50;;;2.57;;
665;SDS011;315;48.738;9.126;2022-10-26T12:25:17;5.93;;;2.43;;
665;SDS011;315;48.738;9.126;2022-10-26T12:35:29;6.33;;;2.60;;
665;SDS011;315;48.738;9.126;2022-10-26T12:37:55;5.47;;;2.53;;
665;SDS011;315;48.738;9.126;2022-10-26T12:45:42;3.13;;;1.73;;
665;SDS011;315;48.738;9.126;2022-10-26T12:48:22;4.33;;;2.47;;
665;SDS011;315;48.738;9.126;2022-10-26T12:50:49;8.07;;;2.70;;
665;SDS011;315;48.738;9.126;2022-10-26T12:53:19;4.83;;;2.40;;
665;SDS011;315;48.738;9.126;2022-10-26T13:06:16;5.03;;;2.27;;
665;SDS011;315;48.738;9.126;2022-10-26T13:09:07;5.00;;;2.80;;
665;SDS011;315;48.738;9.126;2022-10-26T13:11:45;7.30;;;3.03;;
665;SDS011;315;48.738;9.126;2022-10-26T13:14:35;4.43;;;2.30;;
665;SDS011;315;48.738;9.126;2022-10-26T13:17:05;4.57;;;2.23;;
665;SDS011;315;48.738;9.126;2022-10-26T13:19:46;8.00;;;3.83;;
665;SDS011;315;48.738;9.126;2022-10-26T13:22:13;5.10;;;3.20;;
665;SDS011;315;48.738;9.126;2022-10-26T13:24:47;4.00;;;2.63;;
665;SDS011;315;48.738;9.126;2022-10-26T13:27:24;5.90;;;4.40;;
665;SDS011;315;48.738;9.126;2022-10-26T13:32:54;5.00;;;2.40;;
665;SDS011;315;48.738;9.126;2022-10-26T13:35:20;9.03;;;2.57;;
665;SDS011;315;48.738;9.126;2022-10-26T13:37:49;3.63;;;2.73;;
665;SDS011;315;48.738;9.126;2022-10-26T13:40:18;6.70;;;2.40;;
665;SDS011;315;48.738;9.126;2022-10-26T13:42:47;6.07;;;3.10;;
665;SDS011;315;48.738;9.126;2022-10-26T13:45:26;4.57;;;2.47;;
665;SDS011;315;48.738;9.126;2022-10-26T13:48:02;8.70;;;2.90;;
665;SDS011;315;48.738;9.126;2022-10-26T13:50:46;8.23;;;3.27;;
665;SDS011;315;48.738;9.126;2022-10-26T13:56:33;5.90;;;3.30;;
665;SDS011;315;48.738;9.126;2022-10-26T13:59:03;8.43;;;2.90;;
665;SDS011;315;48.738;9.126;2022-10-26T14:01:33;5.50;;;4.50;;
665;SDS011;315;48.738;9.126;2022-10-26T14:03:59;7.43;;;2.60;;
665;SDS011;315;48.738;9.126;2022-10-26T14:06:56;3.27;;;2.60;;
665;SDS011;315;48.738;9.126;2022-10-26T14:09:22;3.77;;;2.50;;
665;SDS011;315;48.738;9.126;2022-10-26T14:11:48;5.53;;;3.07;;
665;SDS011;315;48.738;9.126;2022-10-26T14:14:18;3.50;;;3.00;;
665;SDS011;315;48.738;9.126;2022-10-26T14:16:46;6.10;;;2.63;;
665;SDS011;315;48.738;9.126;2022-10-26T14:19:25;6.03;;;3.27;;
665;SDS011;315;48.738;9.126;2022-10-26T14:21:59;6.67;;;2.87;;
665;SDS011;315;48.738;9.126;2022-10-26T14:24:29;6.07;;;3.23;;
665;SDS011;315;48.738;9.126;2022-10-26T14:26:56;8.90;;;3.20;;
665;SDS011;315;48.738;9.126;2022-10-26T14:29:24;6.07;;;3.10;;
665;SDS011;315;48.738;9.126;2022-10-26T14:31:50;4.97;;;3.70;;
665;SDS011;315;48.738;9.126;2022-10-26T14:34:18;6.63;;;3.73;;
665;SDS011;315;48.738;9.126;2022-10-26T14:37:00;4.10;;;2.90;;
665;SDS011;315;48.738;9.126;2022-10-26T14:42:02;3.87;;;2.70;;
665;SDS011;315;48.738;9.126;2022-10-26T14:44:48;6.50;;;3.37;;
665;SDS011;315;48.738;9.126;2022-10-26T14:47:14;4.10;;;2.90;;
665;SDS011;315;48.738;9.126;2022-10-26T14:49:47;6.10;;;3.37;;
665;SDS011;315;48.738;9.126;2022-10-26T14:52:15;5.17;;;3.77;;
665;SDS011;315;48.738;9.126;2022-10-26T14:54:55;7.43;;;3.40;;
665;SDS011;315;48.738;9.126;2022-10-26T14:57:28;6.53;;;3.20;;
665;SDS011;315;48.738;9.126;2022-10-26T15:00:00;4.10;;;2.60;;
665;SDS011;315;48.738;9.126;2022-10-26T15:02:37;6.73;;;2.60;;
665;SDS011;315;48.738;9.126;2022-10-26T15:05:15;6.97;;;2.30;;
665;SDS011;315;48.738;9.126;2022-10-26T15:07:41;5.40;;;3.13;;
665;SDS011;315;48.738;9.126;2022-10-26T15:10:43;4.97;;;2.80;;
665;SDS011;315;48.738;9.126;2022-10-26T15:13:24;7.33;;;2.83;;
665;SDS011;315;48.738;9.126;2022-10-26T15:18:53;4.83;;;2.53;;
665;SDS011;315;48.738;9.126;2022-10-26T15:21:22;6.60;;;3.67;;
665;SDS011;315;48.738;9.126;2022-10-26T15:23:51;5.07;;;2.13;;
665;SDS011;315;48.738;9.126;2022-10-26T15:26:18;4.53;;;3.10;;
665;SDS011;315;48.738;9.126;2022-10-26T15:28:44;6.13;;;2.60;;
665;SDS011;315;48.738;9.126;2022-10-26T15:33:40;11.80;;;2.60;;
665;SDS011;315;48.738;9.126;2022-10-26T15:38:35;5.00;;;3.03;;
665;SDS011;315;48.738;9.126;2022-10-26T15:41:08;4.10;;;2.80;;
665;SDS011;315;48.738;9.126;2022-10-26T15:43:49;3.87;;;2.23;;
665;SDS011;315;48.738;9.126;2022-10-26T15:46:17;6.63;;;3.23;;
665;SDS011;315;48.738;9.126;2022-10-26T15:48:44;9.43;;;2.67;;
665;SDS011;315;48.738;9.126;2022-10-26T15:51:19;5.37;;;3.10;;
665;SDS011;315;48.738;9.126;2022-10-26T15:53:45;8.87;;;4.00;;
665;SDS011;315;48.738;9.126;2022-10-26T15:56:15;2.30;;;2.10;;
665;SDS011;315;48.738;9.126;2022-10-26T15:58:42;7.80;;;2.57;;
665;SDS011;315;48.738;9.126;2022-10-26T16:01:11;5.80;;;2.90;;
665;SDS011;315;48.738;9.126;2022-10-26T16:03:42;6.37;;;2.70;;
665;SDS011;315;48.738;9.126;2022-10-26T16:06:11;4.60;;;2.70;;
665;SDS011;315;48.738;9.126;2022-10-26T16:08:40;6.30;;;3.83;;
665;SDS011;315;48.738;9.126;2022-10-26T16:11:09;7.10;;;3.77;;
665;SDS011;315;48.738;9.126;2022-10-26T16:13:35;6.20;;;3.33;;
665;SDS011;315;48.738;9.126;2022-10-26T16:16:00;4.77;;;2.80;;
665;SDS011;315;48.738;9.126;2022-10-26T16:18:26;8.23;;;6.00;;
665;SDS011;315;48.738;9.126;2022-10-26T16:20:51;10.20;;;5.23;;
665;SDS011;315;48.738;9.126;2022-10-26T16:23:17;9.33;;;3.57;;
665;SDS011;315;48.738;9.126;2022-10-26T16:25:43;14.50;;;4.60;;
665;SDS011;315;48.738;9.126;2022-10-26T16:28:11;8.07;;;4.10;;
665;SDS011;315;48.738;9.126;2022-10-26T16:30:38;7.50;;;3.93;;
665;SDS011;315;48.738;9.126;2022-10-26T16:33:04;7.90;;;3.43;;
665;SDS011;315;48.738;9.126;2022-10-26T16:35:29;8.87;;;4.37;;
665;SDS011;315;48.738;9.126;2022-10-26T16:37:55;3.53;;;3.10;;
665;SDS011;315;48.738;9.126;2022-10-26T16:40:20;8.43;;;4.70;;
665;SDS011;315;48.738;9.126;2022-10-26T16:42:46;9.40;;;3.23;;
665;SDS011;315;48.738;9.126;2022-10-26T16:45:12;7.37;;;3.87;;
665;SDS011;315;48.738;9.126;2022-10-26T16:47:39;7.57;;;3.93;;
665;SDS011;315;48.738;9.126;2022-10-26T16:50:09;15.77;;;6.50;;
665;SDS011;315;48.738;9.126;2022-10-26T16:52:35;9.80;;;5.03;;
665;SDS011;315;48.738;9.126;2022-10-26T16:55:02;10.53;;;5.77;;
665;SDS011;315;48.738;9.126;2022-10-26T16:57:29;8.83;;;5.50;;
665;SDS011;315;48.738;9.126;2022-10-26T16:59:54;6.70;;;5.03;;
665;SDS011;315;48.738;9.126;2022-10-26T17:02:20;11.13;;;4.50;;
665;SDS011;315;48.738;9.126;2022-10-26T17:04:45;20.80;;;10.93;;
665;SDS011;315;48.738;9.126;2022-10-26T17:07:11;11.50;;;6.47;;
665;SDS011;315;48.738;9.126;2022-10-26T17:09:37;20.77;;;6.43;;
665;SDS011;315;48.738;9.126;2022-10-26T17:12:02;11.03;;;5.03;;
665;SDS011;315;48.738;9.126;2022-10-26T17:14:29;8.07;;;4.70;;
665;SDS011;315;48.738;9.126;2022-10-26T17:16:55;8.30;;;5.43;;
665;SDS011;315;48.738;9.126;2022-10-26T17:19:21;6.40;;;5.37;;
665;SDS011;315;48.738;9.126;2022-10-26T17:21:47;11.90;;;5.57;;
665;SDS011;315;48.738;9.126;2022-10-26T17:24:12;7.60;;;6.13;;
665;SDS011;315;48.738;9.126;2022-10-26T17:26:38;13.40;;;6.77;;
665;SDS011;315;48.738;9.126;2022-10-26T17:29:04;11.93;;;5.80;;
665;SDS011;315;48.738;9.126;2022-10-26T17:31:30;11.20;;;5.80;;
665;SDS011;315;48.738;9.126;2022-10-26T17:33:56;8.87;;;6.80;;
665;SDS011;315;48.738;9.126;2022-10-26T17:36:22;11.00;;;7.20;;
665;SDS011;315;48.738;9.126;2022-10-26T17:38:51;9.40;;;5.93;;
665;SDS011;315;48.738;9.126;2022-10-26T17:41:18;9.27;;;6.80;;
665;SDS011;315;48.738;9.126;2022-10-26T17:43:46;9.60;;;5.67;;
665;SDS011;315;48.738;9.126;2022-10-26T17:46:14;9.47;;;5.63;;
665;SDS011;315;48.738;9.126;2022-10-26T17:48:41;13.33;;;6.13;;
665;SDS011;315;48.738;9.126;2022-10-26T17:51:09;11.73;;;6.03;;
665;SDS011;315;48.738;9.126;2022-10-26T17:53:37;10.50;;;5.80;;
665;SDS011;315;48.738;9.126;2022-10-26T17:56:06;11.97;;;6.10;;
665;SDS011;315;48.738;9.126;2022-10-26T17:58:34;7.10;;;5.70;;
665;SDS011;315;48.738;9.126;2022-10-26T18:01:07;9.17;;;5.40;;
665;SDS011;315;48.738;9.126;2022-10-26T18:03:34;14.67;;;6.87;;
665;SDS011;315;48.738;9.126;2022-10-26T18:06:00;7.90;;;5.90;;
665;SDS011;315;48.738;9.126;2022-10-26T18:08:28;7.33;;;6.43;;
665;SDS011;315;48.738;9.126;2022-10-26T18:10:55;8.57;;;6.00;;
665;SDS011;315;48.738;9.126;2022-10-26T18:13:22;14.23;;;6.00;;
665;SDS011;315;48.738;9.126;2022-10-26T18:15:47;7.83;;;5.33;;
665;SDS011;315;48.738;9.126;2022-10-26T18:18:13;6.07;;;5.17;;
665;SDS011;315;48.738;9.126;2022-10-26T18:20:39;12.20;;;6.87;;
665;SDS011;315;48.738;9.126;2022-10-26T18:23:04;11.80;;;4.73;;
665;SDS011;315;48.738;9.126;2022-10-26T18:25:30;8.47;;;5.17;;
665;SDS011;315;48.738;9.126;2022-10-26T18:27:57;8.93;;;5.00;;
665;SDS011;315;48.738;9.126;2022-10-26T18:30:23;6.97;;;5.30;;